Rowena, Texas
Current Conditions -  °F | °C
As of 8:51 PM on Friday 24 Oct 2014 (Local Time) from KSJT Reporting Station
Clear Clear  
Wind Chill: 72°   Ceiling: Unl
Heat Index: 72°   Visibility: 10mi
Dew Point: 53°   Wind: 7mph
Humidity: 51%   Direction: 190°S
Pressure: 30.12"   Gusts: NA
Location:  31.65°N, 100.05°W
Report Text: KSJT 250151Z AUTO 19006KT 10SM CLR 22/12 A3012 RMK AO2 SLP186 T02220117
Loading
Personal Weather Stations






























Interactive Weather Map New forecast layout! Learn more

10-Day Weather Forecast

Advertisements
Track Severe Weather on mobile